Fort Smith, AR

6:10 PM CDT on July 26, 2016 (GMT -0500)
Riley Farms | | Change Station

Elev 584 ft 35.28 °N, 94.37 °W | Updated 1 minute ago

Overcast
Overcast
86.2 °F
Feels Like 97 °F
N
8.0
Wind Variable Wind from NNW
Gusts 8.0 mph

Today
High -- | Low -- °F
--% Chance of Precip.
Yesterday
High -- | Low -- °F
Precip. -- in
Pressure 29.91 in
Visibility 10.0 miles
Clouds Mostly Cloudy 3700 ft
Heat Index 97 °F
Dew Point 76 °F
Humidity 73%
Rainfall 0.00 in
Snow Depth Not available.
6:22 AM 8:25 PM
Waning Gibbous, 50% visible
METAR KFSM 262253Z 35006KT 10SM TS BKN037 31/22 A2992 RMK AO2 WSHFT 2205 TSB05 SLP127 T03060222
Pressure 29.91 in
Visibility 10.0 miles
Clouds Mostly Cloudy 3700 ft
Heat Index 97 °F
Dew Point 76 °F
Humidity 73%
Rainfall 0.00 in
Snow Depth Not available.
6:22 AM 8:25 PM
Waning Gibbous, 50% visible
METAR KFSM 262253Z 35006KT 10SM TS BKN037 31/22 A2992 RMK AO2 WSHFT 2205 TSB05 SLP127 T03060222

10-Day Weather Forecast

Almanac

Astronomy

Jul. 26, 2016 Rise Set
Actual Time
Civil Twilight
Nautical Twilight
Astronomical Twilight
Moon
Length of Visible Light
Length of Day
Tomorrow will be .
, % of the Moon is Illuminated

Today's Extremes

State Highs State Lows

Community

WunderPhotos

Upload Photos

1,927,729 photos uploaded!

WunderBlog® & News

Nearby

Air Quality

  Air Quality AQ Index Pollutant
Not available.

Snow Depth

Station Depth Elevation

Earthquake Activity

City Distance Mag. Time & Date
Minimum magnitude displayed is 2.5.

Coastal Water Temperatures

Place Temperature

Stations

Nearby Weather Stations

Station Location Temp. Windchill Dew Point Humidity Wind Precip. Elev Updated Type
                   

Watches & Warnings

There are currently no watches in effect.